createdAt,value
2023-02-11T00:01:13.332Z,-1.96
2023-02-11T00:06:15.223Z,-2
2023-02-11T00:11:16.993Z,-2.02
2023-02-11T00:16:18.207Z,-2.03
2023-02-11T00:21:20.208Z,-2.02
2023-02-11T00:26:22.243Z,-2.05
2023-02-11T00:31:23.559Z,-2.07
2023-02-11T00:36:25.177Z,-2.15
2023-02-11T00:41:26.617Z,-2.19
2023-02-11T00:46:28.146Z,-2.26
2023-02-11T00:51:30.027Z,-2.36
2023-02-11T00:56:31.657Z,-2.44
2023-02-11T01:01:32.883Z,-2.47
2023-02-11T01:06:34.242Z,-2.53
2023-02-11T01:11:35.758Z,-2.59
2023-02-11T01:16:37.911Z,-2.65
2023-02-11T01:21:39.274Z,-2.68
2023-02-11T01:26:41.002Z,-2.71
2023-02-11T01:31:43.002Z,-2.75
2023-02-11T01:36:44.377Z,-2.79
2023-02-11T01:41:46.357Z,-2.78
2023-02-11T01:46:47.752Z,-2.76
2023-02-11T01:51:49.362Z,-2.72
2023-02-11T01:56:51.104Z,-2.73
2023-02-11T02:01:53.244Z,-2.72
2023-02-11T02:06:54.984Z,-2.7
2023-02-11T02:11:56.136Z,-2.66
2023-02-11T02:16:57.760Z,-2.64
2023-02-11T02:21:58.874Z,-2.65
2023-02-11T02:27:00.411Z,-2.66
2023-02-11T02:32:02.244Z,-2.65
2023-02-11T02:37:04.080Z,-2.65
2023-02-11T02:42:05.990Z,-2.7
2023-02-11T02:47:07.824Z,-2.74
2023-02-11T02:52:09.394Z,-2.75
2023-02-11T02:57:10.804Z,-2.78
2023-02-11T03:02:12.447Z,-2.8
2023-02-11T03:07:13.891Z,-2.82
2023-02-11T03:12:15.120Z,-2.83
2023-02-11T03:17:17.402Z,-2.83
2023-02-11T03:22:18.901Z,-2.82
2023-02-11T03:27:20.537Z,-2.83
2023-02-11T03:32:22.635Z,-2.84
2023-02-11T03:37:23.786Z,-2.81
2023-02-11T03:42:25.076Z,-2.79
2023-02-11T03:47:26.357Z,-2.77
2023-02-11T03:52:28.161Z,-2.77
2023-02-11T03:57:29.640Z,-2.79
2023-02-11T04:02:31.025Z,-2.76
2023-02-11T04:07:32.444Z,-2.73
2023-02-11T04:12:33.953Z,-2.73
2023-02-11T04:17:35.470Z,-2.75
2023-02-11T04:22:36.656Z,-2.75
2023-02-11T04:27:38.118Z,-2.73
2023-02-11T04:32:40.393Z,-2.74
2023-02-11T04:37:42.075Z,-2.75
2023-02-11T04:42:43.394Z,-2.76
2023-02-11T04:47:44.997Z,-2.75
2023-02-11T04:52:46.669Z,-2.75
2023-02-11T04:57:48.581Z,-2.75
2023-02-11T05:02:50.121Z,-2.77
2023-02-11T05:07:51.883Z,-2.74
2023-02-11T05:12:55.677Z,-2.68
2023-02-11T05:17:54.981Z,-2.56
2023-02-11T05:22:56.474Z,-2.48
2023-02-11T05:27:58.491Z,-2.42
2023-02-11T05:33:00.624Z,-2.33
2023-02-11T05:38:02.527Z,-2.16
2023-02-11T05:43:04.364Z,-1.99
2023-02-11T05:48:06.042Z,-1.9
2023-02-11T05:53:07.652Z,-1.82
2023-02-11T05:58:09.352Z,-1.73
2023-02-11T06:03:11.611Z,-1.64
2023-02-11T06:08:13.314Z,-1.56
2023-02-11T06:13:14.951Z,-1.51
2023-02-11T06:18:16.309Z,-1.45
2023-02-11T06:23:17.728Z,-1.36
2023-02-11T06:28:18.853Z,-1.28
2023-02-11T06:33:20.061Z,-1.22
2023-02-11T06:38:21.632Z,-1.16
2023-02-11T06:43:22.966Z,-1.1
2023-02-11T06:48:25.117Z,-1.01
2023-02-11T06:53:26.454Z,-0.95
2023-02-11T06:58:27.905Z,-0.92
2023-02-11T07:03:29.121Z,-0.87
2023-02-11T07:08:30.601Z,-0.78
2023-02-11T07:13:32.648Z,-0.71
2023-02-11T07:18:34.376Z,-0.66
2023-02-11T07:23:35.961Z,-0.58
2023-02-11T07:28:37.839Z,-0.48
2023-02-11T07:33:39.253Z,-0.37
2023-02-11T07:38:40.932Z,-0.31
2023-02-11T07:43:42.465Z,-0.26
2023-02-11T07:48:44.551Z,-0.14
2023-02-11T07:53:46.298Z,0.03
2023-02-11T07:58:47.737Z,0.24
2023-02-11T08:03:49.437Z,0.45
2023-02-11T08:08:51.455Z,0.68
2023-02-11T08:13:53.056Z,0.95
2023-02-11T08:18:55.176Z,1.21
2023-02-11T08:23:56.302Z,1.46
2023-02-11T08:28:58.485Z,1.68
2023-02-11T08:33:59.687Z,1.94
2023-02-11T08:39:16.346Z,2.14
2023-02-11T08:44:02.565Z,2.27
2023-02-11T08:49:04.037Z,2.42
2023-02-11T08:54:05.878Z,2.58
2023-02-11T08:59:07.859Z,2.7
2023-02-11T09:04:09.750Z,2.79
2023-02-11T09:09:11.615Z,2.89
2023-02-11T09:14:13.593Z,3.07
2023-02-11T09:19:15.181Z,3.34
2023-02-11T09:24:16.774Z,3.62
2023-02-11T09:29:18.256Z,4.15
2023-02-11T09:34:20.192Z,4.62
2023-02-11T09:39:22.052Z,5.31
2023-02-11T09:44:23.605Z,7.24
2023-02-11T09:49:25.636Z,7.31
2023-02-11T09:54:26.967Z,8.85
2023-02-11T09:59:28.686Z,11.23
2023-02-11T10:04:30.866Z,10.36
2023-02-11T10:09:32.809Z,9.54
2023-02-11T10:14:34.680Z,9.41
2023-02-11T10:19:35.975Z,10.01
2023-02-11T10:24:37.541Z,10.63
2023-02-11T10:29:39.629Z,11.45
2023-02-11T10:34:47.191Z,13.84
2023-02-11T10:39:48.966Z,15.38
2023-02-11T10:44:50.511Z,15.6
2023-02-11T10:49:52.021Z,15.33
2023-02-11T10:54:53.608Z,14.51
2023-02-11T10:59:55.544Z,13.72
2023-02-11T11:04:57.453Z,13
2023-02-11T11:09:59.252Z,12.98
2023-02-11T11:15:00.446Z,12.72
2023-02-11T11:20:01.750Z,12.44
2023-02-11T11:25:03.054Z,12.23
2023-02-11T12:00:14.680Z,11.29
2023-02-11T12:15:19.667Z,10.59
2023-02-11T12:30:24.926Z,9.99
2023-02-11T12:35:26.793Z,9.77
2023-02-11T12:40:28.725Z,9.55
2023-02-11T12:45:30.192Z,9.43
2023-02-11T12:50:31.844Z,9.33
2023-02-11T12:55:33.475Z,9.1
2023-02-11T13:00:35.572Z,8.95
2023-02-11T13:05:37.160Z,8.92
2023-02-11T13:10:39.092Z,8.91
2023-02-11T13:15:41.373Z,8.82
2023-02-11T13:20:42.839Z,8.84
2023-02-11T13:25:44.764Z,8.93
2023-02-11T13:30:46.234Z,8.97
2023-02-11T13:35:47.627Z,8.92
2023-02-11T13:40:49.611Z,8.93
2023-02-11T13:45:50.733Z,9.01
2023-02-11T13:50:53.954Z,8.97
2023-02-11T13:55:53.952Z,8.88
2023-02-11T14:00:56.208Z,8.92
2023-02-11T14:05:58.189Z,8.97
2023-02-11T14:10:59.598Z,8.96
2023-02-11T14:16:01.254Z,8.92
2023-02-11T14:21:03.565Z,8.95
2023-02-11T14:26:03.932Z,8.93
2023-02-11T14:31:05.727Z,8.85
2023-02-11T14:36:06.988Z,8.77
2023-02-11T14:41:08.345Z,8.8
2023-02-11T14:46:10.424Z,8.75
2023-02-11T14:51:11.822Z,8.64
2023-02-11T14:56:13.450Z,8.6
2023-02-11T15:01:15.342Z,8.57
2023-02-11T15:06:17.474Z,8.53
2023-02-11T15:11:19.541Z,8.47
2023-02-11T15:16:21.225Z,8.47
2023-02-11T15:21:23.268Z,8.47
2023-02-11T15:26:24.500Z,8.38
2023-02-11T15:31:26.576Z,8.22
2023-02-11T15:36:28.869Z,8.17
2023-02-11T15:41:30.804Z,8.06
2023-02-11T15:46:32.329Z,7.94
2023-02-11T15:51:34.002Z,7.86
2023-02-11T15:56:35.773Z,7.82
2023-02-11T16:01:38.004Z,7.73
2023-02-11T16:06:39.336Z,7.6
2023-02-11T16:11:41.492Z,7.51
2023-02-11T16:16:43.206Z,7.45
2023-02-11T16:21:44.931Z,7.31
2023-02-11T16:26:46.815Z,7.14
2023-02-11T16:31:48.859Z,7.05
2023-02-11T16:36:50.377Z,6.98
2023-02-11T16:41:51.814Z,6.8
2023-02-11T16:46:53.389Z,6.57
2023-02-11T16:51:54.885Z,6.44
2023-02-11T16:56:56.060Z,6.31
2023-02-11T17:01:57.456Z,6.1
2023-02-11T17:06:59.296Z,5.94
2023-02-11T17:12:00.967Z,5.72
2023-02-11T17:17:02.448Z,5.64
2023-02-11T17:22:03.870Z,5.52
2023-02-11T17:27:05.077Z,5.43
2023-02-11T17:32:07.385Z,5.38
2023-02-11T17:37:08.919Z,5.31
2023-02-11T17:42:10.367Z,5.19
2023-02-11T17:47:12.042Z,5.12
2023-02-11T17:52:14.183Z,5.04
2023-02-11T17:57:16.230Z,4.92
2023-02-11T18:02:17.882Z,4.83
2023-02-11T18:07:19.686Z,4.8
2023-02-11T18:12:21.343Z,4.78
2023-02-11T18:17:22.571Z,4.77
2023-02-11T18:22:23.948Z,4.76
2023-02-11T18:27:26.099Z,4.78
2023-02-11T18:32:27.869Z,4.84
2023-02-11T18:37:29.725Z,4.88
2023-02-11T18:42:31.629Z,4.88
2023-02-11T18:47:33.733Z,4.92
2023-02-11T18:52:34.909Z,4.98
2023-02-11T18:57:36.797Z,5.03
2023-02-11T19:02:38.080Z,5.03
2023-02-11T19:07:39.634Z,5.05
2023-02-11T19:12:41.467Z,5.07
2023-02-11T19:17:42.914Z,5.07
2023-02-11T19:22:44.854Z,5.01
2023-02-11T19:27:46.572Z,5.03
2023-02-11T19:32:48.194Z,5.05
2023-02-11T19:37:49.909Z,5.07
2023-02-11T19:42:51.978Z,5.05
2023-02-11T19:47:53.480Z,5.08
2023-02-11T19:52:55.282Z,5.11
2023-02-11T19:57:56.875Z,5.1
2023-02-11T20:02:58.209Z,5.08
2023-02-11T20:08:00.141Z,5.09
2023-02-11T20:13:02.263Z,5.1
2023-02-11T20:18:04.413Z,5.05
2023-02-11T20:23:06.040Z,5.04
2023-02-11T20:28:07.325Z,5.04
2023-02-11T20:33:09.435Z,5.03
2023-02-11T20:38:11.498Z,5
2023-02-11T20:43:13.254Z,4.96
2023-02-11T20:48:14.762Z,4.96
2023-02-11T20:53:16.310Z,4.94
2023-02-11T20:58:18.346Z,4.91
2023-02-11T21:03:19.969Z,4.9
2023-02-11T21:08:21.632Z,4.9
2023-02-11T21:13:22.917Z,4.89
2023-02-11T21:18:24.630Z,4.85
2023-02-11T21:23:25.943Z,4.84
2023-02-11T21:28:27.263Z,4.83
2023-02-11T21:33:29.101Z,4.81
2023-02-11T21:38:31.371Z,4.78
2023-02-11T21:43:32.331Z,4.78
2023-02-11T21:48:33.710Z,4.8
2023-02-11T21:53:35.672Z,4.79
2023-02-11T21:58:36.860Z,4.77
2023-02-11T22:03:38.887Z,4.77
2023-02-11T22:08:40.734Z,4.75
2023-02-11T22:13:42.322Z,4.71
2023-02-11T22:18:43.714Z,4.69
2023-02-11T22:23:45.219Z,4.71
2023-02-11T22:28:46.394Z,4.66
2023-02-11T22:33:47.755Z,4.6
2023-02-11T22:38:49.301Z,4.58
2023-02-11T22:43:51.214Z,4.55
2023-02-11T22:48:52.401Z,4.48
2023-02-11T22:53:53.966Z,4.42
2023-02-11T22:58:55.373Z,4.37
2023-02-11T23:13:59.971Z,4.3
2023-02-11T23:19:01.487Z,4.32
2023-02-11T23:24:03.252Z,4.37
2023-02-11T23:29:05.130Z,4.37
2023-02-11T23:34:07.040Z,4.36
2023-02-11T23:39:08.475Z,4.4
2023-02-11T23:44:10.026Z,4.44
2023-02-11T23:49:11.637Z,4.42
2023-02-11T23:54:13.065Z,4.42
2023-02-11T23:59:14.534Z,4.44
